createdAt,value
2023-02-25T00:04:44.466Z,5.89
2023-02-25T00:09:52.564Z,5.84
2023-02-25T00:15:00.122Z,5.74
2023-02-25T00:20:01.827Z,5.67
2023-02-25T00:25:03.671Z,5.66
2023-02-25T00:30:06.104Z,5.65
2023-02-25T00:35:12.432Z,5.63
2023-02-25T00:40:14.686Z,5.63
2023-02-25T00:45:17.592Z,5.64
2023-02-25T00:50:19.365Z,5.59
2023-02-25T00:55:21.008Z,5.46
2023-02-25T01:00:22.751Z,5.42
2023-02-25T01:05:25.299Z,5.29
2023-02-25T01:10:28.195Z,5.28
2023-02-25T01:15:30.829Z,5.25
2023-02-25T01:20:39.033Z,5.22
2023-02-25T01:25:41.056Z,5.00
2023-02-25T01:30:42.860Z,5.00
2023-02-25T01:35:44.617Z,4.97
2023-02-25T01:40:46.356Z,5.05
2023-02-25T01:45:48.502Z,5.13
2023-02-25T01:50:54.106Z,5.08
2023-02-25T01:55:58.439Z,5.04
2023-02-25T02:01:01.085Z,5.02
2023-02-25T02:06:22.539Z,5.00
2023-02-25T02:11:24.341Z,4.93
2023-02-25T02:16:38.410Z,4.86
2023-02-25T02:22:02.058Z,4.84
2023-02-25T02:27:09.474Z,4.71
2023-02-25T02:32:14.739Z,4.62
2023-02-25T02:37:41.639Z,4.62
2023-02-25T02:42:49.542Z,4.63
2023-02-25T02:47:58.923Z,4.60
2023-02-25T02:53:09.822Z,4.56
2023-02-25T02:58:24.147Z,4.50
2023-02-25T03:03:36.657Z,4.46
2023-02-25T03:08:46.585Z,4.39
2023-02-25T03:13:48.464Z,4.29
2023-02-25T03:19:18.532Z,4.16
2023-02-25T03:24:23.470Z,3.96
2023-02-25T03:29:28.448Z,3.82
2023-02-25T03:34:36.054Z,3.72
2023-02-25T03:39:42.066Z,3.62
2023-02-25T03:44:55.014Z,3.50
2023-02-25T03:50:07.025Z,3.42
2023-02-25T03:55:10.322Z,3.40
2023-02-25T04:00:19.197Z,3.38
2023-02-25T04:05:23.122Z,3.33
2023-02-25T04:10:25.660Z,3.29
2023-02-25T04:15:27.632Z,3.21
2023-02-25T04:20:30.107Z,3.11
2023-02-25T04:25:31.823Z,2.95
2023-02-25T04:30:34.448Z,2.83
2023-02-25T04:35:36.304Z,2.67
2023-02-25T04:40:38.028Z,2.50
2023-02-25T04:45:48.262Z,2.31
2023-02-25T04:50:49.935Z,2.10
2023-02-25T04:55:51.694Z,1.97
2023-02-25T05:00:54.945Z,1.93
2023-02-25T05:05:57.158Z,1.88
2023-02-25T05:10:59.040Z,1.79
2023-02-25T05:16:16.504Z,1.78
2023-02-25T05:21:21.565Z,1.77
2023-02-25T05:26:24.953Z,1.83
2023-02-25T05:31:26.989Z,1.91
2023-02-25T05:36:29.590Z,1.97
2023-02-25T05:41:31.615Z,2.03
2023-02-25T05:46:34.011Z,2.20
2023-02-25T05:51:35.941Z,2.33
2023-02-25T05:56:37.702Z,2.38
2023-02-25T06:01:39.445Z,2.43
2023-02-25T06:06:41.912Z,2.51
2023-02-25T06:11:43.744Z,2.66
2023-02-25T06:16:45.554Z,2.73
2023-02-25T06:21:47.407Z,2.77
2023-02-25T06:26:49.101Z,2.83
2023-02-25T06:31:50.902Z,2.91
2023-02-25T06:36:52.946Z,2.99
2023-02-25T06:41:54.719Z,3.09
2023-02-25T06:46:56.743Z,2.96
2023-02-25T06:51:58.430Z,3.15
2023-02-25T06:57:00.818Z,3.08
2023-02-25T07:02:02.672Z,2.90
2023-02-25T07:07:04.475Z,2.74
2023-02-25T07:12:06.296Z,2.58
2023-02-25T07:17:08.091Z,2.44
2023-02-25T07:22:15.878Z,2.25
2023-02-25T07:27:17.564Z,2.30
2023-02-25T07:32:19.436Z,2.46
2023-02-25T07:37:21.498Z,2.67
2023-02-25T07:42:23.586Z,2.94
2023-02-25T07:47:25.329Z,3.24
2023-02-25T07:52:27.154Z,3.49
2023-02-25T07:57:29.113Z,3.81
2023-02-25T08:02:30.840Z,4.03
2023-02-25T08:07:32.900Z,4.17
2023-02-25T08:12:34.733Z,4.19
2023-02-25T08:17:36.390Z,4.23
2023-02-25T08:22:38.468Z,4.38
2023-02-25T08:27:40.294Z,4.58
2023-02-25T08:32:42.123Z,4.70
2023-02-25T08:37:45.375Z,4.83
2023-02-25T08:42:47.261Z,5.01
2023-02-25T08:47:49.550Z,5.24
2023-02-25T08:52:51.856Z,5.43
2023-02-25T08:57:54.155Z,5.58
2023-02-25T09:02:55.808Z,5.49
2023-02-25T09:07:59.017Z,5.29
2023-02-25T09:13:00.754Z,5.12
2023-02-25T09:18:02.420Z,4.99
2023-02-25T09:23:04.350Z,4.88
2023-02-25T09:28:08.115Z,4.73
2023-02-25T09:33:10.010Z,4.86
2023-02-25T09:38:13.025Z,4.81
2023-02-25T09:43:23.726Z,4.65
2023-02-25T09:48:28.891Z,4.43
2023-02-25T09:53:41.903Z,4.12
2023-02-25T09:58:46.784Z,3.74
2023-02-25T10:04:02.001Z,3.44
2023-02-25T10:09:14.844Z,3.37
2023-02-25T10:14:49.609Z,3.52
2023-02-25T10:20:18.390Z,3.70
2023-02-25T10:25:28.188Z,3.84
2023-02-25T10:31:02.084Z,4.14
2023-02-25T10:36:10.326Z,4.44
2023-02-25T10:41:13.479Z,4.60
2023-02-25T10:46:27.240Z,4.65
2023-02-25T10:51:29.915Z,4.85
2023-02-25T10:56:39.919Z,5.22
2023-02-25T11:01:42.791Z,5.59
2023-02-25T11:06:45.094Z,5.81
2023-02-25T11:12:08.906Z,5.78
2023-02-25T11:17:13.296Z,5.36
2023-02-25T11:22:24.077Z,4.91
2023-02-25T11:27:39.305Z,4.73
2023-02-25T11:32:54.969Z,4.92
2023-02-25T11:37:58.739Z,4.91
2023-02-25T11:43:17.160Z,4.86
2023-02-25T11:48:23.949Z,4.70
2023-02-25T11:53:47.662Z,4.18
2023-02-25T11:59:07.006Z,4.02
2023-02-25T12:04:59.429Z,4.09
2023-02-25T12:10:17.063Z,4.27
2023-02-25T12:15:50.237Z,4.34
2023-02-25T12:21:33.510Z,4.35
2023-02-25T12:26:54.026Z,4.31
2023-02-25T12:32:21.384Z,4.23
2023-02-25T12:37:29.664Z,4.24
2023-02-25T12:42:31.392Z,4.28
2023-02-25T12:47:39.036Z,4.29
2023-02-25T12:52:54.142Z,3.96
2023-02-25T12:58:20.020Z,3.28
2023-02-25T13:03:29.820Z,2.89
2023-02-25T13:08:46.872Z,2.82
2023-02-25T13:13:57.110Z,2.85
2023-02-25T13:19:36.015Z,3.03
2023-02-25T13:24:56.674Z,3.37
2023-02-25T13:30:15.283Z,3.61
2023-02-25T13:35:42.914Z,3.53
2023-02-25T13:40:48.317Z,3.14
2023-02-25T13:46:06.124Z,2.88
2023-02-25T13:51:13.557Z,2.82
2023-02-25T13:56:30.433Z,2.82
2023-02-25T14:01:57.691Z,2.72
2023-02-25T14:07:42.391Z,2.63
2023-02-25T14:12:49.845Z,2.57
2023-02-25T14:18:29.684Z,2.65
2023-02-25T14:23:50.362Z,2.81
2023-02-25T14:29:12.027Z,3.07
2023-02-25T14:34:28.945Z,3.35
2023-02-25T14:39:51.881Z,3.49
2023-02-25T14:45:14.522Z,3.56
2023-02-25T14:50:24.121Z,3.45
2023-02-25T14:55:41.583Z,3.25
2023-02-25T15:00:52.833Z,3.02
2023-02-25T15:06:03.408Z,2.87
2023-02-25T15:11:14.063Z,2.74
2023-02-25T15:16:21.567Z,2.58
2023-02-25T15:21:39.424Z,2.46
2023-02-25T15:26:51.733Z,2.38
2023-02-25T15:32:21.594Z,2.33
2023-02-25T15:37:37.198Z,2.31
2023-02-25T15:42:47.516Z,2.24
2023-02-25T15:47:49.615Z,2.14
2023-02-25T15:52:56.730Z,2.01
2023-02-25T15:58:23.607Z,1.91
2023-02-25T16:03:31.394Z,1.82
2023-02-25T16:08:44.290Z,1.70
2023-02-25T16:13:46.292Z,1.58
2023-02-25T16:18:50.631Z,1.51
2023-02-25T16:23:54.538Z,1.50
2023-02-25T16:29:14.958Z,1.53
2023-02-25T16:34:22.853Z,1.52
2023-02-25T16:39:27.798Z,1.50
2023-02-25T16:44:36.492Z,1.48
2023-02-25T16:49:46.159Z,1.47
2023-02-25T16:54:56.631Z,1.46
2023-02-25T17:00:14.757Z,1.44
2023-02-25T17:05:26.646Z,1.45
2023-02-25T17:10:46.866Z,1.49
2023-02-25T17:15:48.595Z,1.47
2023-02-25T17:20:52.682Z,1.42
2023-02-25T17:25:55.178Z,1.43
2023-02-25T17:31:27.889Z,1.42
2023-02-25T17:36:33.384Z,1.43
2023-02-25T17:41:36.367Z,1.47
2023-02-25T17:46:43.953Z,1.47
2023-02-25T17:51:46.419Z,1.46
2023-02-25T17:56:59.885Z,1.48
2023-02-25T18:02:03.061Z,1.48
2023-02-25T18:07:35.383Z,1.47
2023-02-25T18:12:39.353Z,1.45
2023-02-25T18:17:47.302Z,1.47
2023-02-25T18:22:49.462Z,1.48
2023-02-25T18:27:53.775Z,1.46
2023-02-25T18:32:57.351Z,1.48
2023-02-25T18:38:00.409Z,1.53
2023-02-25T18:43:03.807Z,1.51
2023-02-25T18:48:07.009Z,1.52
2023-02-25T18:53:21.115Z,1.54
2023-02-25T18:58:24.379Z,1.57
2023-02-25T19:03:33.832Z,1.59
2023-02-25T19:08:35.849Z,1.60
2023-02-25T19:13:41.399Z,1.65
2023-02-25T19:18:43.469Z,1.67
2023-02-25T19:23:46.149Z,1.62
2023-02-25T19:28:47.968Z,1.59
2023-02-25T19:33:49.632Z,1.57
2023-02-25T19:38:51.302Z,1.50
2023-02-25T19:43:54.219Z,1.41
2023-02-25T19:48:57.113Z,1.36
2023-02-25T19:54:00.298Z,1.32
2023-02-25T19:59:02.406Z,1.25
2023-02-25T20:04:04.980Z,1.22
2023-02-25T20:09:09.227Z,1.16
2023-02-25T20:14:12.459Z,1.15
2023-02-25T20:19:14.203Z,1.09
2023-02-25T20:24:15.970Z,1.06
2023-02-25T20:29:18.319Z,0.96
2023-02-25T20:34:21.762Z,0.92
2023-02-25T20:39:26.610Z,0.86
2023-02-25T20:44:28.287Z,0.82
2023-02-25T20:49:30.140Z,0.71
2023-02-25T20:54:31.852Z,0.65
2023-02-25T20:59:35.042Z,0.62
2023-02-25T21:04:37.357Z,0.59
2023-02-25T21:09:39.559Z,0.51
2023-02-25T21:14:41.623Z,0.47
2023-02-25T21:19:43.740Z,0.45
2023-02-25T21:24:45.559Z,0.44
2023-02-25T21:29:49.981Z,0.41
2023-02-25T21:34:51.688Z,0.42
2023-02-25T21:39:53.959Z,0.42
2023-02-25T21:44:55.847Z,0.38
2023-02-25T21:49:57.548Z,0.37
2023-02-25T21:54:59.262Z,0.35
2023-02-25T22:00:01.935Z,0.26
2023-02-25T22:05:13.946Z,0.22
2023-02-25T22:10:15.891Z,0.21
2023-02-25T22:15:22.990Z,0.21
2023-02-25T22:20:24.719Z,0.21
2023-02-25T22:25:26.375Z,0.20
2023-02-25T22:30:28.164Z,0.17
2023-02-25T22:35:29.927Z,0.13
2023-02-25T22:40:31.626Z,0.12
2023-02-25T22:45:33.720Z,0.17
2023-02-25T22:50:49.336Z,0.24
2023-02-25T22:55:51.335Z,0.26
2023-02-25T23:00:54.402Z,0.24
2023-02-25T23:05:56.138Z,0.15
2023-02-25T23:11:19.183Z,0.21
2023-02-25T23:16:24.521Z,0.25
2023-02-25T23:21:27.800Z,0.29
2023-02-25T23:26:34.058Z,0.31
2023-02-25T23:31:38.351Z,0.33
2023-02-25T23:36:42.250Z,0.36
2023-02-25T23:41:44.200Z,0.37
2023-02-25T23:46:46.001Z,0.39
2023-02-25T23:51:48.409Z,0.45
2023-02-25T23:56:50.880Z,0.46
